createdAt,value
2022-09-15T00:01:22.220Z,99.90
2022-09-15T00:03:51.371Z,99.90
2022-09-15T00:06:20.317Z,99.90
2022-09-15T00:08:48.428Z,99.90
2022-09-15T00:11:19.507Z,99.90
2022-09-15T00:13:48.357Z,99.90
2022-09-15T00:16:17.596Z,99.90
2022-09-15T00:18:47.545Z,99.90
2022-09-15T00:21:17.430Z,99.90
2022-09-15T00:23:46.618Z,99.90
2022-09-15T00:26:18.220Z,99.90
2022-09-15T00:28:46.751Z,99.90
2022-09-15T00:31:17.217Z,99.90
2022-09-15T00:33:48.914Z,99.90
2022-09-15T00:36:18.358Z,99.90
2022-09-15T00:38:46.964Z,99.90
2022-09-15T00:41:18.113Z,99.90
2022-09-15T00:43:52.298Z,99.90
2022-09-15T00:46:23.816Z,99.90
2022-09-15T00:48:58.972Z,99.90
2022-09-15T00:51:33.097Z,99.90
2022-09-15T00:54:03.923Z,99.90
2022-09-15T00:56:34.714Z,99.90
2022-09-15T00:59:06.350Z,99.90
2022-09-15T01:01:34.763Z,99.90
2022-09-15T01:04:04.699Z,99.90
2022-09-15T01:06:36.696Z,99.90
2022-09-15T01:09:11.639Z,99.90
2022-09-15T01:11:43.238Z,99.90
2022-09-15T01:14:11.803Z,99.90
2022-09-15T01:16:53.008Z,99.90
2022-09-15T01:19:53.676Z,99.90
2022-09-15T01:22:36.168Z,99.90
2022-09-15T01:25:10.411Z,99.90
2022-09-15T01:28:14.317Z,99.90
2022-09-15T01:30:50.979Z,99.90
2022-09-15T01:33:30.646Z,99.90
2022-09-15T01:36:06.266Z,99.90
2022-09-15T01:38:55.724Z,99.90
2022-09-15T01:41:27.840Z,99.90
2022-09-15T01:44:00.885Z,99.90
2022-09-15T01:46:33.556Z,99.90
2022-09-15T01:49:03.258Z,99.90
2022-09-15T01:51:33.503Z,99.90
2022-09-15T01:54:05.065Z,99.90
2022-09-15T01:56:33.927Z,99.90
2022-09-15T01:59:02.096Z,99.90
2022-09-15T02:01:42.301Z,99.90
2022-09-15T02:04:15.639Z,99.90
2022-09-15T02:06:53.404Z,99.90
2022-09-15T02:09:25.392Z,99.90
2022-09-15T02:12:02.227Z,99.90
2022-09-15T02:14:43.105Z,99.90
2022-09-15T02:17:17.321Z,99.90
2022-09-15T02:19:49.221Z,99.90
2022-09-15T02:22:23.489Z,99.90
2022-09-15T02:24:59.016Z,99.90
2022-09-15T02:27:32.346Z,99.90
2022-09-15T02:30:08.348Z,99.90
2022-09-15T02:32:40.998Z,99.90
2022-09-15T02:35:11.695Z,99.90
2022-09-15T02:37:42.161Z,99.90
2022-09-15T02:40:11.404Z,99.90
2022-09-15T02:42:40.386Z,99.90
2022-09-15T02:45:10.051Z,99.90
2022-09-15T02:47:40.041Z,99.90
2022-09-15T02:50:09.285Z,99.90
2022-09-15T02:52:37.460Z,99.90
2022-09-15T02:55:06.369Z,99.90
2022-09-15T02:57:34.579Z,99.90
2022-09-15T03:00:16.849Z,99.90
2022-09-15T03:02:50.194Z,99.90
2022-09-15T03:05:20.807Z,99.90
2022-09-15T03:07:49.623Z,99.90
2022-09-15T03:10:19.202Z,99.90
2022-09-15T03:12:49.519Z,99.90
2022-09-15T03:15:20.966Z,99.90
2022-09-15T03:17:53.099Z,99.90
2022-09-15T03:20:22.842Z,99.90
2022-09-15T03:22:51.528Z,99.90
2022-09-15T03:25:19.894Z,99.90
2022-09-15T03:27:48.590Z,99.90
2022-09-15T03:30:17.074Z,99.90
2022-09-15T03:32:45.358Z,99.90
2022-09-15T03:35:14.938Z,99.90
2022-09-15T03:37:43.207Z,99.90
2022-09-15T03:40:12.225Z,99.90
2022-09-15T03:42:41.364Z,99.90
2022-09-15T03:45:10.330Z,99.90
2022-09-15T03:47:38.434Z,99.90
2022-09-15T03:50:07.934Z,99.90
2022-09-15T03:52:37.489Z,99.90
2022-09-15T03:55:06.472Z,99.90
2022-09-15T03:57:34.570Z,99.90
2022-09-15T04:00:03.316Z,99.90
2022-09-15T04:02:31.378Z,99.90
2022-09-15T04:04:59.926Z,99.90
2022-09-15T04:07:28.224Z,99.90
2022-09-15T04:09:57.754Z,99.90
2022-09-15T04:12:26.159Z,99.90
2022-09-15T04:14:54.581Z,99.90
2022-09-15T04:17:22.945Z,99.90
2022-09-15T04:19:51.414Z,99.90
2022-09-15T04:22:20.267Z,99.90
2022-09-15T04:24:48.899Z,99.90
2022-09-15T04:27:18.954Z,99.90
2022-09-15T04:29:47.268Z,99.90
2022-09-15T04:32:15.508Z,99.90
2022-09-15T04:34:43.754Z,99.90
2022-09-15T04:37:12.178Z,99.90
2022-09-15T04:39:40.535Z,99.90
2022-09-15T04:42:08.958Z,99.90
2022-09-15T04:44:38.670Z,99.90
2022-09-15T04:47:07.324Z,99.90
2022-09-15T04:49:35.525Z,99.90
2022-09-15T04:52:08.954Z,99.90
2022-09-15T04:54:37.822Z,99.90
2022-09-15T04:57:06.044Z,99.90
2022-09-15T04:59:34.292Z,99.90
2022-09-15T05:02:04.492Z,99.90
2022-09-15T05:04:32.870Z,99.90
2022-09-15T05:07:01.066Z,99.90
2022-09-15T05:09:30.962Z,99.90
2022-09-15T05:12:31.824Z,99.90
2022-09-15T05:15:00.888Z,99.90
2022-09-15T05:17:33.804Z,99.90
2022-09-15T05:20:02.532Z,99.90
2022-09-15T05:22:31.105Z,99.90
2022-09-15T05:24:59.374Z,99.90
2022-09-15T05:27:27.646Z,99.90
2022-09-15T05:30:09.957Z,99.90
2022-09-15T05:32:45.442Z,99.90
2022-09-15T05:35:13.780Z,99.90
2022-09-15T05:37:41.920Z,99.90
2022-09-15T05:40:11.360Z,99.90
2022-09-15T05:42:40.466Z,99.90
2022-09-15T05:45:10.792Z,99.90
2022-09-15T05:47:39.707Z,99.90
2022-09-15T05:50:11.188Z,99.90
2022-09-15T05:52:39.454Z,99.90
2022-09-15T05:55:08.206Z,99.90
2022-09-15T05:57:36.448Z,99.90
2022-09-15T06:00:06.345Z,99.90
2022-09-15T06:02:34.830Z,99.90
2022-09-15T06:05:03.098Z,99.90
2022-09-15T06:07:32.570Z,99.90
2022-09-15T06:10:01.566Z,99.90
2022-09-15T06:12:30.453Z,99.90
2022-09-15T06:15:00.094Z,99.90
2022-09-15T06:17:29.024Z,99.90
2022-09-15T06:20:00.070Z,99.90
2022-09-15T06:22:29.423Z,99.90
2022-09-15T06:24:59.032Z,99.90
2022-09-15T06:27:27.575Z,99.90
2022-09-15T06:29:55.618Z,99.90
2022-09-15T06:32:24.210Z,99.90
2022-09-15T06:34:52.474Z,99.90
2022-09-15T06:37:20.911Z,99.90
2022-09-15T06:39:49.371Z,99.90
2022-09-15T06:42:18.814Z,99.90
2022-09-15T06:44:47.631Z,99.90
2022-09-15T06:47:16.716Z,99.90
2022-09-15T06:49:44.896Z,99.90
2022-09-15T06:52:13.868Z,99.90
2022-09-15T06:54:41.998Z,99.90
2022-09-15T06:57:10.982Z,99.90
2022-09-15T06:59:40.682Z,99.90
2022-09-15T07:02:11.132Z,99.90
2022-09-15T07:04:39.653Z,99.90
2022-09-15T07:07:08.046Z,99.90
2022-09-15T07:09:40.952Z,99.90
2022-09-15T07:12:10.019Z,99.90
2022-09-15T07:14:38.179Z,99.90
2022-09-15T07:17:08.661Z,99.90
2022-09-15T07:19:37.031Z,99.90
2022-09-15T07:22:05.592Z,99.90
2022-09-15T07:24:33.937Z,99.90
2022-09-15T07:27:02.360Z,99.90
2022-09-15T07:29:32.193Z,99.90
2022-09-15T07:32:03.531Z,99.90
2022-09-15T07:34:33.802Z,99.90
2022-09-15T07:37:02.485Z,99.90
2022-09-15T07:39:30.950Z,99.90
2022-09-15T07:41:59.117Z,99.90
2022-09-15T07:44:27.674Z,99.90
2022-09-15T07:46:56.061Z,99.90
2022-09-15T07:49:24.207Z,99.90
2022-09-15T07:51:54.071Z,99.90
2022-09-15T07:54:23.136Z,99.90
2022-09-15T07:56:52.231Z,99.90
2022-09-15T07:59:20.313Z,99.90
2022-09-15T08:01:48.619Z,99.90
2022-09-15T08:04:16.804Z,99.90
2022-09-15T08:06:45.665Z,99.90
2022-09-15T08:09:17.815Z,99.90
2022-09-15T08:11:46.429Z,99.90
2022-09-15T08:14:14.997Z,99.90
2022-09-15T08:16:43.102Z,99.90
2022-09-15T08:19:12.807Z,99.90
2022-09-15T08:21:41.302Z,99.90
2022-09-15T08:24:11.255Z,99.90
2022-09-15T08:26:42.323Z,99.90
2022-09-15T08:29:11.123Z,99.90
2022-09-15T08:31:39.630Z,99.90
2022-09-15T08:34:08.211Z,99.90
2022-09-15T08:36:36.429Z,99.90
2022-09-15T08:39:05.888Z,99.90
2022-09-15T08:41:36.425Z,99.90
2022-09-15T08:44:16.282Z,99.90
2022-09-15T08:46:50.948Z,99.90
2022-09-15T08:49:49.937Z,99.90
2022-09-15T08:52:20.575Z,99.90
2022-09-15T08:54:50.352Z,99.90
2022-09-15T08:57:23.112Z,99.90
2022-09-15T08:59:54.472Z,99.90
2022-09-15T09:02:58.597Z,99.90
2022-09-15T09:05:46.241Z,99.90
2022-09-15T09:08:32.811Z,99.90
2022-09-15T09:11:11.483Z,99.90
2022-09-15T09:13:46.782Z,99.90
2022-09-15T09:16:39.977Z,99.90
2022-09-15T09:19:32.321Z,99.90
2022-09-15T09:22:07.686Z,99.90
2022-09-15T09:24:43.548Z,99.90
2022-09-15T09:27:18.858Z,99.90
2022-09-15T09:29:54.781Z,99.90
2022-09-15T09:32:27.759Z,99.90
2022-09-15T09:35:04.432Z,99.90
2022-09-15T09:37:35.974Z,99.90
2022-09-15T09:40:07.045Z,99.90
2022-09-15T09:42:38.020Z,99.90
2022-09-15T09:45:07.893Z,99.90
2022-09-15T09:47:39.940Z,99.90
2022-09-15T09:50:39.084Z,99.90
2022-09-15T09:53:20.653Z,99.90
2022-09-15T09:55:48.938Z,99.90
2022-09-15T09:58:21.591Z,99.90
2022-09-15T10:00:50.837Z,99.90
2022-09-15T10:03:21.114Z,99.90
2022-09-15T10:06:06.060Z,99.90
2022-09-15T10:08:36.585Z,99.90
2022-09-15T10:11:07.143Z,99.90
2022-09-15T10:13:37.252Z,99.90
2022-09-15T10:16:07.909Z,99.90
2022-09-15T10:18:39.213Z,99.90
2022-09-15T10:21:12.325Z,99.90
2022-09-15T10:23:45.094Z,99.90
2022-09-15T10:26:33.193Z,99.90
2022-09-15T10:29:17.301Z,99.90
2022-09-15T10:31:49.216Z,99.90
2022-09-15T10:34:31.808Z,99.90
2022-09-15T10:37:18.005Z,99.90
2022-09-15T10:39:53.555Z,99.90
2022-09-15T10:42:32.154Z,99.90
2022-09-15T10:45:14.494Z,99.90
2022-09-15T10:47:54.280Z,99.90
2022-09-15T10:50:32.876Z,99.90
2022-09-15T10:53:15.082Z,99.90
2022-09-15T10:55:53.779Z,99.90
2022-09-15T10:58:45.913Z,99.90
2022-09-15T11:01:40.194Z,99.90
2022-09-15T11:04:42.309Z,99.90
2022-09-15T11:07:18.240Z,99.90
2022-09-15T11:09:52.520Z,99.90
2022-09-15T11:12:32.907Z,99.90
2022-09-15T11:15:24.832Z,99.90
2022-09-15T11:18:13.312Z,99.90
2022-09-15T11:20:56.155Z,99.90
2022-09-15T11:23:32.642Z,99.90
2022-09-15T11:26:11.671Z,99.90
2022-09-15T11:28:45.382Z,99.90
2022-09-15T11:31:19.739Z,99.90
2022-09-15T11:33:56.134Z,99.90
2022-09-15T11:36:31.998Z,99.90
2022-09-15T11:39:08.869Z,99.90
2022-09-15T11:41:43.519Z,99.90
2022-09-15T11:44:22.692Z,99.90
2022-09-15T11:47:02.944Z,99.90
2022-09-15T11:49:36.492Z,99.90
2022-09-15T11:52:10.842Z,99.90
2022-09-15T11:54:45.641Z,99.90
2022-09-15T11:57:19.706Z,99.90
2022-09-15T11:59:54.660Z,99.90
2022-09-15T12:02:31.747Z,99.90
2022-09-15T12:05:09.552Z,99.90
2022-09-15T12:07:44.686Z,99.90
2022-09-15T12:10:20.475Z,99.90
2022-09-15T12:12:51.747Z,99.90
2022-09-15T12:15:27.387Z,99.90
2022-09-15T12:18:06.565Z,99.90
2022-09-15T12:20:54.664Z,99.90
2022-09-15T12:23:28.415Z,99.90
2022-09-15T12:26:15.240Z,99.90
2022-09-15T12:28:56.481Z,99.90
2022-09-15T12:31:31.437Z,99.90
2022-09-15T12:34:01.992Z,99.90
2022-09-15T12:36:46.020Z,99.90
2022-09-15T12:39:39.215Z,99.90
2022-09-15T12:42:22.202Z,99.90
2022-09-15T12:44:58.109Z,99.90
2022-09-15T12:47:32.263Z,99.90
2022-09-15T12:50:06.996Z,99.90
2022-09-15T12:52:44.892Z,99.90
2022-09-15T12:55:21.240Z,99.90
2022-09-15T12:57:58.464Z,99.90
2022-09-15T13:00:42.372Z,99.90
2022-09-15T13:04:10.980Z,99.90
2022-09-15T13:06:39.248Z,99.90
2022-09-15T13:09:27.390Z,99.90
2022-09-15T13:11:57.336Z,99.90
2022-09-15T13:14:33.873Z,92.80
2022-09-15T13:17:12.426Z,13.80
2022-09-15T13:19:46.871Z,1.00
2022-09-15T13:22:23.603Z,1.00
2022-09-15T13:24:59.277Z,1.00
2022-09-15T13:27:44.963Z,1.00
2022-09-15T13:30:31.216Z,1.00
2022-09-15T13:33:07.952Z,1.00
2022-09-15T13:35:52.427Z,27.70
2022-09-15T13:38:56.528Z,1.00
2022-09-15T13:41:51.221Z,1.00
2022-09-15T13:44:32.428Z,1.00
2022-09-15T13:47:17.632Z,9.70
2022-09-15T13:49:52.564Z,1.00
2022-09-15T13:52:34.252Z,1.00
2022-09-15T13:55:11.296Z,1.00
2022-09-15T14:00:32.409Z,1.00
2022-09-15T14:03:06.573Z,1.00
2022-09-15T14:05:37.354Z,1.00
2022-09-15T14:08:10.283Z,1.00
2022-09-15T14:10:48.094Z,1.00
2022-09-15T14:13:18.994Z,1.00
2022-09-15T14:15:58.947Z,1.00
2022-09-15T14:18:28.062Z,1.00
2022-09-15T14:21:03.420Z,1.00
2022-09-15T14:23:33.006Z,1.00
2022-09-15T14:26:10.959Z,1.00
2022-09-15T14:28:40.512Z,1.00
2022-09-15T14:31:10.686Z,1.00
2022-09-15T14:33:41.478Z,1.00
2022-09-15T14:36:24.520Z,7.50
2022-09-15T14:39:19.741Z,13.40
2022-09-15T14:41:51.023Z,13.60
2022-09-15T14:47:21.858Z,20.60
2022-09-15T14:54:32.587Z,18.40
2022-09-15T14:57:06.824Z,22.30
2022-09-15T14:59:45.998Z,20.60
2022-09-15T15:02:28.635Z,25.90
2022-09-15T15:05:07.519Z,31.10
2022-09-15T15:07:39.393Z,15.70
2022-09-15T15:10:17.937Z,13.80
2022-09-15T15:12:51.884Z,5.50
2022-09-15T15:15:22.485Z,7.00
2022-09-15T15:18:31.991Z,10.50
2022-09-15T15:21:00.756Z,13.50
2022-09-15T15:23:29.579Z,20.40
2022-09-15T15:26:33.896Z,28.80
2022-09-15T15:29:30.192Z,16.20
2022-09-15T15:32:06.693Z,14.60
2022-09-15T15:34:36.045Z,4.20
2022-09-15T15:37:33.385Z,5.00
2022-09-15T15:40:05.923Z,1.20
2022-09-15T15:42:35.832Z,3.80
2022-09-15T15:45:23.081Z,1.00
2022-09-15T15:47:51.259Z,7.50
2022-09-15T15:50:28.328Z,7.40
2022-09-15T15:52:57.012Z,8.30
2022-09-15T15:55:49.045Z,15.50
2022-09-15T15:58:18.001Z,20.80
2022-09-15T16:00:49.166Z,29.20
2022-09-15T16:03:18.279Z,28.90
2022-09-15T16:05:49.119Z,34.20
2022-09-15T16:08:24.622Z,26.50
2022-09-15T16:10:54.407Z,31.10
2022-09-15T16:13:24.256Z,36.70
2022-09-15T16:15:54.755Z,33.00
2022-09-15T16:18:23.010Z,27.60
2022-09-15T16:20:51.535Z,33.50
2022-09-15T16:23:22.907Z,31.70
2022-09-15T16:25:56.293Z,27.40
2022-09-15T16:28:24.934Z,29.30
2022-09-15T16:30:54.384Z,39.10
2022-09-15T16:33:22.923Z,38.40
2022-09-15T16:35:55.294Z,42.50
2022-09-15T16:38:28.196Z,70.80
2022-09-15T16:40:56.804Z,95.40
2022-09-15T16:43:25.188Z,99.90
2022-09-15T16:45:54.685Z,99.90
2022-09-15T16:48:23.053Z,99.90
2022-09-15T16:53:40.881Z,99.90
2022-09-15T16:56:12.574Z,99.90
2022-09-15T16:58:41.125Z,99.90
2022-09-15T17:01:18.265Z,99.90
2022-09-15T17:03:47.043Z,99.90
2022-09-15T17:06:16.980Z,99.90
2022-09-15T17:08:45.821Z,99.90
2022-09-15T17:11:16.837Z,99.90
2022-09-15T17:13:46.112Z,99.90
2022-09-15T17:16:19.508Z,99.90
2022-09-15T17:18:48.405Z,99.90
2022-09-15T17:21:18.742Z,99.90
2022-09-15T17:23:48.827Z,99.90
2022-09-15T17:26:21.906Z,99.90
2022-09-15T17:28:50.748Z,99.90
2022-09-15T17:31:21.927Z,99.90
2022-09-15T17:33:51.059Z,99.90
2022-09-15T17:36:19.841Z,99.90
2022-09-15T17:38:48.970Z,99.90
2022-09-15T17:41:19.336Z,99.90
2022-09-15T17:43:48.052Z,99.90
2022-09-15T17:46:16.605Z,99.90
2022-09-15T17:48:46.511Z,99.90
2022-09-15T17:51:18.557Z,99.90
2022-09-15T17:53:47.799Z,99.90
2022-09-15T17:56:16.307Z,99.90
2022-09-15T17:58:44.519Z,99.90
2022-09-15T18:01:14.530Z,99.90
2022-09-15T18:03:47.433Z,99.90
2022-09-15T18:06:15.676Z,99.90
2022-09-15T18:08:43.971Z,99.90
2022-09-15T18:11:15.237Z,99.90
2022-09-15T18:13:43.500Z,99.90
2022-09-15T18:16:14.281Z,99.90
2022-09-15T18:18:46.656Z,99.90
2022-09-15T18:21:31.646Z,99.90
2022-09-15T18:24:19.318Z,99.90
2022-09-15T18:27:00.071Z,99.90
2022-09-15T18:29:42.516Z,99.90
2022-09-15T18:32:18.083Z,99.90
2022-09-15T18:35:02.573Z,99.90
2022-09-15T18:37:45.406Z,99.90
2022-09-15T18:40:21.324Z,99.90
2022-09-15T18:42:56.553Z,99.90
2022-09-15T18:45:27.138Z,99.90
2022-09-15T18:47:55.858Z,99.90
2022-09-15T18:50:28.216Z,99.90
2022-09-15T18:52:57.925Z,99.90
2022-09-15T18:55:26.301Z,99.90
2022-09-15T18:57:56.900Z,99.90
2022-09-15T19:00:30.219Z,99.90
2022-09-15T19:03:08.180Z,99.90
2022-09-15T19:05:41.372Z,99.90
2022-09-15T19:08:12.119Z,99.90
2022-09-15T19:10:45.919Z,99.90
2022-09-15T19:13:19.308Z,99.90
2022-09-15T19:15:54.835Z,99.90
2022-09-15T19:18:25.849Z,99.90
2022-09-15T19:21:02.453Z,99.90
2022-09-15T19:23:47.273Z,99.90
2022-09-15T19:26:17.019Z,99.90
2022-09-15T19:29:01.366Z,99.90
2022-09-15T19:31:54.597Z,99.90
2022-09-15T19:34:47.630Z,99.90
2022-09-15T19:37:18.967Z,99.90
2022-09-15T19:39:54.431Z,99.90
2022-09-15T19:42:26.407Z,99.90
2022-09-15T19:44:59.249Z,99.90
2022-09-15T19:48:18.423Z,99.90
2022-09-15T19:50:48.157Z,99.90
2022-09-15T19:53:16.354Z,99.90
2022-09-15T19:55:50.699Z,99.90
2022-09-15T19:58:20.190Z,99.90
2022-09-15T20:00:54.350Z,99.90
2022-09-15T20:03:23.655Z,99.90
2022-09-15T20:05:52.871Z,99.90
2022-09-15T20:08:21.941Z,99.90
2022-09-15T20:10:52.362Z,99.90
2022-09-15T20:13:20.504Z,99.90
2022-09-15T20:15:59.036Z,99.90
2022-09-15T20:18:27.994Z,99.90
2022-09-15T20:20:57.619Z,99.90
2022-09-15T20:23:25.868Z,99.90
2022-09-15T20:26:05.037Z,99.90
2022-09-15T20:28:41.147Z,99.90
2022-09-15T20:31:19.487Z,99.90
2022-09-15T20:34:07.804Z,99.90
2022-09-15T20:36:48.439Z,99.90
2022-09-15T20:39:20.688Z,99.90
2022-09-15T20:41:50.196Z,99.90
2022-09-15T20:44:18.234Z,99.90
2022-09-15T20:46:50.537Z,99.90
2022-09-15T20:49:22.948Z,99.90
2022-09-15T20:51:52.010Z,99.90
2022-09-15T20:54:20.355Z,99.90
2022-09-15T20:56:50.457Z,99.90
2022-09-15T20:59:18.948Z,99.90
2022-09-15T21:01:53.292Z,99.90
2022-09-15T21:04:23.390Z,99.90
2022-09-15T21:06:55.623Z,99.90
2022-09-15T21:09:24.292Z,99.90
2022-09-15T21:11:53.970Z,99.90
2022-09-15T21:14:22.069Z,99.90
2022-09-15T21:16:50.724Z,99.90
2022-09-15T21:19:19.026Z,99.90
2022-09-15T21:21:47.248Z,99.90
2022-09-15T21:24:15.794Z,99.90
2022-09-15T21:26:57.899Z,99.90
2022-09-15T21:29:28.069Z,99.90
2022-09-15T21:31:57.902Z,99.90
2022-09-15T21:34:26.416Z,99.90
2022-09-15T21:36:54.988Z,99.90
2022-09-15T21:39:23.276Z,99.90
2022-09-15T21:41:54.604Z,99.90
2022-09-15T21:44:22.926Z,99.90
2022-09-15T21:46:52.696Z,99.90
2022-09-15T21:49:21.077Z,99.90
2022-09-15T21:51:49.546Z,99.90
2022-09-15T21:54:18.041Z,99.90
2022-09-15T21:56:46.100Z,99.90
2022-09-15T21:59:14.612Z,99.90
2022-09-15T22:01:42.798Z,99.90
2022-09-15T22:04:12.402Z,99.90
2022-09-15T22:06:42.904Z,99.90
2022-09-15T22:09:15.544Z,99.90
2022-09-15T22:11:43.984Z,99.90
2022-09-15T22:14:13.337Z,99.90
2022-09-15T22:16:43.158Z,99.90
2022-09-15T22:19:13.874Z,99.90
2022-09-15T22:21:42.663Z,99.90
2022-09-15T22:24:12.711Z,99.90
2022-09-15T22:26:42.368Z,99.90
2022-09-15T22:29:10.947Z,99.90
2022-09-15T22:31:39.537Z,99.90
2022-09-15T22:34:07.900Z,99.90
2022-09-15T22:36:37.589Z,99.90
2022-09-15T22:39:06.711Z,99.90
2022-09-15T22:41:37.591Z,99.90
2022-09-15T22:44:06.522Z,99.90
2022-09-15T22:46:35.456Z,99.90
2022-09-15T22:49:03.839Z,99.90
2022-09-15T22:51:32.161Z,99.90
2022-09-15T22:54:03.489Z,99.90
2022-09-15T22:56:31.877Z,99.90
2022-09-15T22:59:00.361Z,99.90
2022-09-15T23:01:31.189Z,99.90
2022-09-15T23:04:01.107Z,99.90
2022-09-15T23:06:32.370Z,99.90
2022-09-15T23:09:03.645Z,99.90
2022-09-15T23:11:33.929Z,99.90
2022-09-15T23:14:02.746Z,99.90
2022-09-15T23:16:32.476Z,99.90
2022-09-15T23:19:01.181Z,99.90
2022-09-15T23:21:32.631Z,99.90
2022-09-15T23:24:02.689Z,99.90
2022-09-15T23:26:32.351Z,99.90
2022-09-15T23:29:01.213Z,99.90
2022-09-15T23:31:29.690Z,99.90
2022-09-15T23:33:58.564Z,99.90
2022-09-15T23:36:27.581Z,99.90
2022-09-15T23:38:56.235Z,99.90
2022-09-15T23:41:27.689Z,99.90
2022-09-15T23:43:57.430Z,99.90
2022-09-15T23:46:26.284Z,99.90
2022-09-15T23:48:55.769Z,99.90
2022-09-15T23:51:24.605Z,99.90
2022-09-15T23:53:53.264Z,99.90
2022-09-15T23:56:21.773Z,99.90
2022-09-15T23:58:52.211Z,99.90
